South Lyme, CT (06376)

12:51 PM EDT on August 28, 2016 (GMT -0400)
Giant's Neck Heights | | Change Station

Elev 89 ft 41.31 °N, 72.23 °W | Updated 1 minute ago

Clear
Clear
80.4 °F
Feels Like 82 °F
N
2.0
Wind Variable Wind from WSW
Gusts 4.0 mph

Today
High -- | Low -- °F
--% Chance of Precip.
Yesterday
High -- | Low -- °F
Precip. -- in
Pressure 30.27 in
Visibility 10.0 miles
Clouds Clear
Heat Index 82 °F
Dew Point 65 °F
Humidity 60%
Rainfall 0.00 in
Snow Depth Not available.
6:11 AM 7:27 PM
Waning Crescent, 14% visible
METAR KGON 281556Z 18006KT 10SM CLR 27/17 A3027 RMK AO2 SLP249 T02670167
Pressure 30.27 in
Visibility 10.0 miles
Clouds Clear
Heat Index 82 °F
Dew Point 65 °F
Humidity 60%
Rainfall 0.00 in
Snow Depth Not available.
6:11 AM 7:27 PM
Waning Crescent, 14% visible
METAR KGON 281556Z 18006KT 10SM CLR 27/17 A3027 RMK AO2 SLP249 T02670167

10-Day Weather Forecast

Almanac

Astronomy

Aug. 28, 2016 Rise Set
Actual Time
Civil Twilight
Nautical Twilight
Astronomical Twilight
Moon
Length of Visible Light
Length of Day
Tomorrow will be .
, % of the Moon is Illuminated

Today's Extremes

State Highs State Lows

Community

WunderPhotos

Upload Photos

1,935,627 photos uploaded!

WunderBlog® & News

Nearby

Air Quality

  Air Quality AQ Index Pollutant
Not available.

Snow Depth

Station Depth Elevation

Earthquake Activity

City Distance Mag. Time & Date
Minimum magnitude displayed is 2.5.

Coastal Water Temperatures

Place Temperature

Stations

Nearby Weather Stations

Station Location Temp. Windchill Dew Point Humidity Wind Precip. Elev Updated Type
                   

Watches & Warnings

There are currently no watches in effect.